createdAt,value
2018-06-28T00:01:39.802Z,1.70
2018-06-28T00:04:08.966Z,2.10
2018-06-28T00:06:38.114Z,2.20
2018-06-28T00:09:08.489Z,1.70
2018-06-28T00:11:37.675Z,1.73
2018-06-28T00:14:06.881Z,1.73
2018-06-28T00:16:36.132Z,1.50
2018-06-28T00:19:05.265Z,1.50
2018-06-28T00:21:34.432Z,1.77
2018-06-28T00:24:03.541Z,1.60
2018-06-28T00:26:32.666Z,1.70
2018-06-28T00:29:01.998Z,1.80
2018-06-28T00:31:31.191Z,1.70
2018-06-28T00:34:00.351Z,2.10
2018-06-28T00:36:29.544Z,2.10
2018-06-28T00:38:58.693Z,2.00
2018-06-28T00:41:27.815Z,1.80
2018-06-28T00:43:56.940Z,2.27
2018-06-28T00:46:26.083Z,2.30
2018-06-28T00:48:55.178Z,2.10
2018-06-28T00:51:24.304Z,2.10
2018-06-28T00:53:53.464Z,1.83
2018-06-28T00:56:22.933Z,2.03
2018-06-28T00:58:52.037Z,2.13
2018-06-28T01:01:21.178Z,1.80
2018-06-28T01:03:50.357Z,1.83
2018-06-28T01:06:19.553Z,2.00
2018-06-28T01:08:48.665Z,1.83
2018-06-28T01:11:17.832Z,1.90
2018-06-28T01:13:46.986Z,2.00
2018-06-28T01:16:16.197Z,2.53
2018-06-28T01:18:45.190Z,2.10
2018-06-28T01:21:15.472Z,2.00
2018-06-28T01:23:44.548Z,1.90
2018-06-28T01:26:13.670Z,2.17
2018-06-28T01:28:42.774Z,1.73
2018-06-28T01:31:11.893Z,2.27
2018-06-28T01:33:41.106Z,1.97
2018-06-28T01:36:10.258Z,1.80
2018-06-28T01:38:39.395Z,2.00
2018-06-28T01:41:08.522Z,2.87
2018-06-28T01:43:45.577Z,2.23
2018-06-28T01:46:15.376Z,1.83
2018-06-28T01:48:44.694Z,1.80
2018-06-28T01:51:13.888Z,1.73
2018-06-28T01:53:43.074Z,1.80
2018-06-28T01:56:12.338Z,1.87
2018-06-28T01:58:41.466Z,1.50
2018-06-28T02:01:10.637Z,1.70
2018-06-28T02:03:39.900Z,1.90
2018-06-28T02:06:09.049Z,2.10
2018-06-28T02:08:38.209Z,1.97
2018-06-28T02:11:07.346Z,2.10
2018-06-28T02:13:36.486Z,2.33
2018-06-28T02:16:05.372Z,3.30
2018-06-28T02:18:34.403Z,3.23
2018-06-28T02:21:03.580Z,2.90
2018-06-28T02:23:32.690Z,2.50
2018-06-28T02:26:01.811Z,2.40
2018-06-28T02:28:30.935Z,2.30
2018-06-28T02:31:00.070Z,2.53
2018-06-28T02:33:29.225Z,2.80
2018-06-28T02:35:58.399Z,2.20
2018-06-28T02:38:27.543Z,2.77
2018-06-28T02:40:56.702Z,2.90
2018-06-28T02:43:25.884Z,2.30
2018-06-28T02:45:55.029Z,2.30
2018-06-28T02:48:24.166Z,2.27
2018-06-28T02:50:53.290Z,2.50
2018-06-28T02:53:22.491Z,3.03
2018-06-28T02:55:51.670Z,3.20
2018-06-28T02:58:20.821Z,3.10
2018-06-28T03:00:49.964Z,2.50
2018-06-28T03:03:19.070Z,2.40
2018-06-28T03:05:48.199Z,2.47
2018-06-28T03:08:17.361Z,2.40
2018-06-28T03:10:47.524Z,2.47
2018-06-28T03:13:16.686Z,2.17
2018-06-28T03:15:45.816Z,2.50
2018-06-28T03:18:14.981Z,2.27
2018-06-28T03:20:44.162Z,2.53
2018-06-28T03:23:13.261Z,2.30
2018-06-28T03:25:42.445Z,2.50
2018-06-28T03:28:12.577Z,2.40
2018-06-28T03:30:41.758Z,2.40
2018-06-28T03:33:10.919Z,2.73
2018-06-28T03:35:40.107Z,2.53
2018-06-28T03:38:09.376Z,2.80
2018-06-28T03:40:38.462Z,2.87
2018-06-28T03:43:07.582Z,2.50
2018-06-28T03:45:36.705Z,2.80
2018-06-28T03:48:05.892Z,2.43
2018-06-28T03:50:35.042Z,2.40
2018-06-28T03:53:04.234Z,2.37
2018-06-28T03:55:33.377Z,2.30
2018-06-28T03:58:02.546Z,2.60
2018-06-28T04:00:31.657Z,2.73
2018-06-28T04:03:00.883Z,2.70
2018-06-28T04:05:30.027Z,2.47
2018-06-28T04:07:59.163Z,2.80
2018-06-28T04:10:28.355Z,2.37
2018-06-28T04:12:57.459Z,2.40
2018-06-28T04:15:26.609Z,2.70
2018-06-28T04:17:55.764Z,2.23
2018-06-28T04:20:25.024Z,2.93
2018-06-28T04:22:54.145Z,2.87
2018-06-28T04:25:23.299Z,2.80
2018-06-28T04:27:52.432Z,2.70
2018-06-28T04:30:21.619Z,2.57
2018-06-28T04:32:50.751Z,3.07
2018-06-28T04:35:19.961Z,2.70
2018-06-28T04:37:49.069Z,3.47
2018-06-28T04:40:18.219Z,2.83
2018-06-28T04:42:47.318Z,2.43
2018-06-28T04:45:16.450Z,2.70
2018-06-28T04:47:45.597Z,3.20
2018-06-28T04:50:14.738Z,2.77
2018-06-28T04:52:43.905Z,2.83
2018-06-28T04:55:13.045Z,3.50
2018-06-28T04:57:42.215Z,3.30
2018-06-28T05:00:11.354Z,3.10
2018-06-28T05:02:40.460Z,3.33
2018-06-28T05:05:09.629Z,3.10
2018-06-28T05:07:38.732Z,3.20
2018-06-28T05:10:07.908Z,3.20
2018-06-28T05:12:37.102Z,3.20
2018-06-28T05:15:06.233Z,3.43
2018-06-28T05:17:35.814Z,2.87
2018-06-28T05:20:04.978Z,3.00
2018-06-28T05:22:34.098Z,3.20
2018-06-28T05:25:03.214Z,3.23
2018-06-28T05:27:32.382Z,2.97
2018-06-28T05:30:01.546Z,3.40
2018-06-28T05:32:30.684Z,3.30
2018-06-28T05:34:59.985Z,3.30
2018-06-28T05:37:29.086Z,2.90
2018-06-28T05:39:58.291Z,3.43
2018-06-28T05:42:27.564Z,3.43
2018-06-28T05:44:57.368Z,4.10
2018-06-28T05:47:26.579Z,3.20
2018-06-28T05:49:55.721Z,3.13
2018-06-28T05:52:24.863Z,3.00
2018-06-28T05:54:54.001Z,3.70
2018-06-28T05:57:23.095Z,3.43
2018-06-28T05:59:52.206Z,3.70
2018-06-28T06:02:21.354Z,3.33
2018-06-28T06:04:50.621Z,3.47
2018-06-28T06:07:19.740Z,3.27
2018-06-28T06:09:49.202Z,3.20
2018-06-28T06:12:18.335Z,3.47
2018-06-28T06:14:47.442Z,3.47
2018-06-28T06:17:16.579Z,3.20
2018-06-28T06:19:45.785Z,3.87
2018-06-28T06:22:15.079Z,3.57
2018-06-28T06:24:44.220Z,3.47
2018-06-28T06:27:13.355Z,4.07
2018-06-28T06:29:42.514Z,4.10
2018-06-28T06:32:11.729Z,3.90
2018-06-28T06:34:40.588Z,3.80
2018-06-28T06:37:09.639Z,3.60
2018-06-28T06:39:38.774Z,3.67
2018-06-28T06:42:07.929Z,3.20
2018-06-28T06:44:37.084Z,3.47
2018-06-28T06:47:06.246Z,3.03
2018-06-28T06:49:35.397Z,3.57
2018-06-28T06:52:04.600Z,3.17
2018-06-28T06:54:33.437Z,2.90
2018-06-28T06:57:02.445Z,2.97
2018-06-28T06:59:31.618Z,3.30
2018-06-28T07:02:02.542Z,3.30
2018-06-28T07:04:33.456Z,2.93
2018-06-28T07:07:04.201Z,3.00
2018-06-28T07:09:33.446Z,3.10
2018-06-28T07:12:02.771Z,3.17
2018-06-28T07:14:31.992Z,3.35
2018-06-28T07:17:01.174Z,3.05
2018-06-28T07:19:33.304Z,3.10
2018-06-28T07:22:02.522Z,3.15
2018-06-28T07:24:31.650Z,3.47
2018-06-28T07:27:00.821Z,3.00
2018-06-28T07:29:30.025Z,2.92
2018-06-28T07:31:59.121Z,3.12
2018-06-28T07:34:28.447Z,3.12
2018-06-28T07:36:57.749Z,3.25
2018-06-28T07:39:26.919Z,3.33
2018-06-28T07:41:56.097Z,2.90
2018-06-28T07:44:25.273Z,3.20
2018-06-28T07:46:54.414Z,3.42
2018-06-28T07:49:23.530Z,3.30
2018-06-28T07:51:52.708Z,3.02
2018-06-28T07:54:21.861Z,3.15
2018-06-28T07:56:51.014Z,3.15
2018-06-28T07:59:20.176Z,3.47
2018-06-28T08:01:49.309Z,3.50
2018-06-28T08:04:18.461Z,3.30
2018-06-28T08:06:47.687Z,2.95
2018-06-28T08:09:16.919Z,3.12
2018-06-28T08:11:46.046Z,3.00
2018-06-28T08:14:15.313Z,2.98
2018-06-28T08:16:44.481Z,3.12
2018-06-28T08:19:13.650Z,2.90
2018-06-28T08:21:42.940Z,3.80
2018-06-28T08:24:12.934Z,3.33
2018-06-28T08:26:42.220Z,3.07
2018-06-28T08:29:11.816Z,2.80
2018-06-28T08:31:41.046Z,3.20
2018-06-28T08:34:10.385Z,3.33
2018-06-28T08:36:39.597Z,3.67
2018-06-28T08:39:09.613Z,3.10
2018-06-28T08:41:38.798Z,3.50
2018-06-28T08:44:08.072Z,3.53
2018-06-28T08:46:37.175Z,3.20
2018-06-28T08:49:06.420Z,3.30
2018-06-28T08:51:35.567Z,3.50
2018-06-28T08:54:04.970Z,4.23
2018-06-28T08:56:34.106Z,3.47
2018-06-28T08:59:03.269Z,4.17
2018-06-28T09:01:32.466Z,3.80
2018-06-28T09:04:01.607Z,3.30
2018-06-28T09:06:30.775Z,4.10
2018-06-28T09:09:00.002Z,4.30
2018-06-28T09:11:29.133Z,2.87
2018-06-28T09:13:58.333Z,3.53
2018-06-28T09:16:27.545Z,2.93
2018-06-28T09:18:57.908Z,3.33
2018-06-28T09:21:27.052Z,3.07
2018-06-28T09:23:56.156Z,2.90
2018-06-28T09:26:25.602Z,4.57
2018-06-28T09:28:54.750Z,3.37
2018-06-28T09:31:23.907Z,6.77
2018-06-28T09:33:53.051Z,5.17
2018-06-28T09:36:22.172Z,3.70
2018-06-28T09:38:51.317Z,3.53
2018-06-28T09:41:20.640Z,3.13
2018-06-28T09:43:49.875Z,3.60
2018-06-28T09:46:19.060Z,3.80
2018-06-28T09:48:48.395Z,4.13
2018-06-28T09:51:17.435Z,5.47
2018-06-28T09:53:46.820Z,5.03
2018-06-28T09:56:15.961Z,4.20
2018-06-28T09:58:45.114Z,3.63
2018-06-28T10:01:14.249Z,2.97
2018-06-28T10:03:43.397Z,3.87
2018-06-28T10:06:12.789Z,4.27
2018-06-28T10:08:41.919Z,3.53
2018-06-28T10:11:11.130Z,3.60
2018-06-28T10:13:40.273Z,3.90
2018-06-28T10:16:09.578Z,3.10
2018-06-28T10:18:38.841Z,3.00
2018-06-28T10:21:07.979Z,4.00
2018-06-28T10:23:37.114Z,3.13
2018-06-28T10:26:06.341Z,4.03
2018-06-28T10:28:35.451Z,4.00
2018-06-28T10:31:04.601Z,3.70
2018-06-28T10:33:33.786Z,2.83
2018-06-28T10:36:02.933Z,3.90
2018-06-28T10:38:32.152Z,5.00
2018-06-28T10:41:01.447Z,6.50
2018-06-28T10:43:30.626Z,6.83
2018-06-28T10:45:59.934Z,5.10
2018-06-28T10:48:29.128Z,3.40
2018-06-28T10:50:58.319Z,3.23
2018-06-28T10:53:27.693Z,6.30
2018-06-28T10:55:57.322Z,3.43
2018-06-28T10:58:26.447Z,3.53
2018-06-28T11:00:55.618Z,2.90
2018-06-28T11:03:24.766Z,4.03
2018-06-28T11:05:54.190Z,3.60
2018-06-28T11:08:23.470Z,3.50
2018-06-28T11:10:52.706Z,4.43
2018-06-28T11:13:21.929Z,4.20
2018-06-28T11:15:51.102Z,4.43
2018-06-28T11:18:20.238Z,4.37
2018-06-28T11:20:49.366Z,4.27
2018-06-28T11:23:18.961Z,5.33
2018-06-28T11:25:48.115Z,4.50
2018-06-28T11:28:17.325Z,5.97
2018-06-28T11:30:46.516Z,5.73
2018-06-28T11:33:15.666Z,5.70
2018-06-28T11:35:44.901Z,6.47
2018-06-28T11:38:14.101Z,4.40
2018-06-28T11:40:43.249Z,4.63
2018-06-28T11:43:12.387Z,4.70
2018-06-28T11:45:41.891Z,4.67
2018-06-28T11:48:11.116Z,5.10
2018-06-28T11:50:40.483Z,5.80
2018-06-28T11:53:09.642Z,8.83
2018-06-28T11:55:39.094Z,4.90
2018-06-28T11:58:08.503Z,5.03
2018-06-28T12:00:37.695Z,5.27
2018-06-28T12:03:07.189Z,5.10
2018-06-28T12:05:36.626Z,5.50
2018-06-28T12:08:05.861Z,5.93
2018-06-28T12:10:34.998Z,5.67
2018-06-28T12:13:04.181Z,6.10
2018-06-28T12:15:33.298Z,5.87
2018-06-28T12:18:02.495Z,5.30
2018-06-28T12:20:31.734Z,5.47
2018-06-28T12:23:00.922Z,6.47
2018-06-28T12:25:30.089Z,5.83
2018-06-28T12:27:59.215Z,6.13
2018-06-28T12:30:28.381Z,5.80
2018-06-28T12:32:57.510Z,6.90
2018-06-28T12:35:26.754Z,7.47
2018-06-28T12:37:55.576Z,6.00
2018-06-28T12:40:24.694Z,5.87
2018-06-28T12:42:54.060Z,5.90
2018-06-28T12:45:23.332Z,7.83
2018-06-28T12:47:57.887Z,10.67
2018-06-28T12:50:27.189Z,6.10
2018-06-28T12:53:02.566Z,4.70
2018-06-28T12:56:40.060Z,6.43
2018-06-28T12:59:10.580Z,5.47
2018-06-28T13:01:39.727Z,5.20
2018-06-28T13:04:08.925Z,4.67
2018-06-28T13:06:38.081Z,6.63
2018-06-28T13:09:13.905Z,5.47
2018-06-28T13:11:43.095Z,5.40
2018-06-28T13:14:12.234Z,4.53
2018-06-28T13:16:41.388Z,5.77
2018-06-28T13:19:10.590Z,4.20
2018-06-28T13:21:39.750Z,4.07
2018-06-28T13:24:08.976Z,4.40
2018-06-28T13:26:38.066Z,4.00
2018-06-28T13:29:07.378Z,4.10
2018-06-28T13:31:36.571Z,4.13
2018-06-28T13:34:05.897Z,4.43
2018-06-28T13:36:35.181Z,4.03
2018-06-28T13:39:06.768Z,4.00
2018-06-28T13:41:36.366Z,4.00
2018-06-28T13:44:05.084Z,3.90
2018-06-28T13:46:34.484Z,4.27
2018-06-28T13:49:03.797Z,4.43
2018-06-28T13:51:32.939Z,4.60
2018-06-28T13:54:02.096Z,4.20
2018-06-28T13:56:31.285Z,3.73
2018-06-28T13:59:00.400Z,4.30
2018-06-28T14:01:29.626Z,3.60
2018-06-28T14:03:58.825Z,3.47
2018-06-28T14:06:28.037Z,3.60
2018-06-28T14:08:57.233Z,3.90
2018-06-28T14:11:26.367Z,3.60
2018-06-28T14:13:55.546Z,3.40
2018-06-28T14:16:24.809Z,3.00
2018-06-28T14:18:53.874Z,5.43
2018-06-28T14:21:23.057Z,3.97
2018-06-28T14:23:52.216Z,3.80
2018-06-28T14:26:21.406Z,3.67
2018-06-28T14:28:50.541Z,3.93
2018-06-28T14:31:19.785Z,3.83
2018-06-28T14:33:49.002Z,4.10
2018-06-28T14:36:18.118Z,4.10
2018-06-28T14:38:47.259Z,4.60
2018-06-28T14:41:16.549Z,4.23
2018-06-28T14:43:45.878Z,5.67
2018-06-28T14:46:15.051Z,5.87
2018-06-28T14:48:44.274Z,5.00
2018-06-28T14:51:13.495Z,4.80
2018-06-28T14:53:42.693Z,4.87
2018-06-28T14:56:11.900Z,5.00
2018-06-28T14:58:41.167Z,4.87
2018-06-28T15:01:10.231Z,4.93
2018-06-28T15:03:39.374Z,4.37
2018-06-28T15:06:08.534Z,5.30
2018-06-28T15:08:37.626Z,5.67
2018-06-28T15:11:06.923Z,6.07
2018-06-28T15:13:36.157Z,5.03
2018-06-28T15:16:05.701Z,5.43
2018-06-28T15:18:34.903Z,6.87
2018-06-28T15:21:04.084Z,6.80
2018-06-28T15:23:33.243Z,6.57
2018-06-28T15:26:03.350Z,7.07
2018-06-28T15:28:32.577Z,6.90
2018-06-28T15:31:01.765Z,8.13
2018-06-28T15:33:30.982Z,8.27
2018-06-28T15:36:00.180Z,7.10
2018-06-28T15:38:29.334Z,8.00
2018-06-28T15:40:58.570Z,8.70
2018-06-28T15:43:27.744Z,8.17
2018-06-28T15:45:56.925Z,8.47
2018-06-28T15:48:26.112Z,8.57
2018-06-28T15:50:55.822Z,8.40
2018-06-28T15:53:25.062Z,8.80
2018-06-28T15:55:54.310Z,9.57
2018-06-28T15:58:23.540Z,10.20
2018-06-28T16:00:52.765Z,9.57
2018-06-28T16:03:22.021Z,9.00
2018-06-28T16:05:51.466Z,8.00
2018-06-28T16:08:20.709Z,7.83
2018-06-28T16:10:50.093Z,8.03
2018-06-28T16:13:19.266Z,7.87
2018-06-28T16:15:48.558Z,8.90
2018-06-28T16:18:17.779Z,8.60
2018-06-28T16:20:47.603Z,9.17
2018-06-28T16:23:17.891Z,8.50
2018-06-28T16:25:47.246Z,8.67
2018-06-28T16:28:16.263Z,8.37
2018-06-28T16:30:45.108Z,8.60
2018-06-28T16:33:14.396Z,8.63
2018-06-28T16:35:43.737Z,9.27
2018-06-28T16:38:13.010Z,8.53
2018-06-28T16:40:42.355Z,8.90
2018-06-28T16:43:11.602Z,8.37
2018-06-28T16:45:40.885Z,9.50
2018-06-28T16:48:10.214Z,8.77
2018-06-28T16:50:39.711Z,9.00
2018-06-28T16:53:09.000Z,8.97
2018-06-28T16:55:38.256Z,8.50
2018-06-28T16:58:09.295Z,8.80
2018-06-28T17:00:39.155Z,8.20
2018-06-28T17:03:11.784Z,9.00
2018-06-28T17:05:40.990Z,9.33
2018-06-28T17:08:11.327Z,9.23
2018-06-28T17:10:40.679Z,8.50
2018-06-28T17:13:09.917Z,8.10
2018-06-28T17:15:39.216Z,8.43
2018-06-28T17:18:08.450Z,8.90
2018-06-28T17:20:37.673Z,7.83
2018-06-28T17:23:06.955Z,8.03
2018-06-28T17:25:36.172Z,7.83
2018-06-28T17:28:05.667Z,9.03
2018-06-28T17:30:35.084Z,9.97
2018-06-28T17:33:05.806Z,8.73
2018-06-28T17:35:35.933Z,8.50
2018-06-28T17:38:05.382Z,9.47
2018-06-28T17:40:36.203Z,10.30
2018-06-28T17:43:05.571Z,9.23
2018-06-28T17:45:35.272Z,9.63
2018-06-28T17:48:05.320Z,8.20
2018-06-28T17:50:36.372Z,8.13
2018-06-28T17:53:07.545Z,7.50
2018-06-28T17:55:36.752Z,7.57
2018-06-28T17:58:06.038Z,8.00
2018-06-28T18:00:35.239Z,8.60
2018-06-28T18:03:04.607Z,8.70
2018-06-28T18:05:33.830Z,9.17
2018-06-28T18:08:03.050Z,7.40
2018-06-28T18:10:32.295Z,8.80
2018-06-28T18:13:01.825Z,8.80
2018-06-28T18:15:30.999Z,8.37
2018-06-28T18:18:00.304Z,8.50
2018-06-28T18:20:29.249Z,8.40
2018-06-28T18:22:58.342Z,8.40
2018-06-28T18:25:27.576Z,8.57
2018-06-28T18:27:57.552Z,9.33
2018-06-28T18:30:26.777Z,9.00
2018-06-28T18:32:55.936Z,8.77
2018-06-28T18:35:25.145Z,8.47
2018-06-28T18:37:54.779Z,7.40
2018-06-28T18:40:23.950Z,6.40
2018-06-28T18:42:53.195Z,6.77
2018-06-28T18:45:22.435Z,5.80
2018-06-28T18:47:51.731Z,6.27
2018-06-28T18:50:21.039Z,6.17
2018-06-28T18:52:50.536Z,6.13
2018-06-28T18:55:20.731Z,5.50
2018-06-28T18:57:49.768Z,5.70
2018-06-28T19:00:19.111Z,5.53
2018-06-28T19:02:49.300Z,5.60
2018-06-28T19:05:18.530Z,5.57
2018-06-28T19:07:47.426Z,6.50
2018-06-28T19:10:21.993Z,5.73
2018-06-28T19:12:51.233Z,5.53
2018-06-28T19:15:25.822Z,5.60
2018-06-28T19:17:55.341Z,6.03
2018-06-28T19:20:24.659Z,6.03
2018-06-28T19:22:59.134Z,5.87
2018-06-28T19:25:28.370Z,5.20
2018-06-28T19:27:57.593Z,5.50
2018-06-28T19:30:32.105Z,5.40
2018-06-28T19:33:01.339Z,4.80
2018-06-28T19:35:30.579Z,5.30
2018-06-28T19:38:00.154Z,5.70
2018-06-28T19:40:34.706Z,5.40
2018-06-28T19:43:06.873Z,5.50
2018-06-28T19:45:36.153Z,5.53
2018-06-28T19:48:05.799Z,6.00
2018-06-28T19:51:37.776Z,5.93
2018-06-28T19:54:07.068Z,6.63
2018-06-28T19:56:36.312Z,6.23
2018-06-28T19:59:05.641Z,6.47
2018-06-28T20:01:40.251Z,6.27
2018-06-28T20:04:12.917Z,6.37
2018-06-28T20:06:44.862Z,6.40
2018-06-28T20:09:16.026Z,6.57
2018-06-28T20:11:45.343Z,5.73
2018-06-28T20:14:19.955Z,6.20
2018-06-28T20:16:54.467Z,6.03
2018-06-28T20:19:29.165Z,6.10
2018-06-28T20:21:58.438Z,6.73
2018-06-28T20:24:27.720Z,6.10
2018-06-28T20:27:02.310Z,6.20
2018-06-28T20:29:36.854Z,6.33
2018-06-28T20:33:10.881Z,13.33
2018-06-28T20:35:40.167Z,6.23
2018-06-28T20:38:09.341Z,7.00
2018-06-28T20:40:38.544Z,6.63
2018-06-28T20:43:07.901Z,8.17
2018-06-28T20:45:37.089Z,6.00
2018-06-28T20:48:06.316Z,7.40
2018-06-28T20:50:35.189Z,6.63
2018-06-28T20:53:04.410Z,5.80
2018-06-28T20:55:33.910Z,5.83
2018-06-28T20:58:02.836Z,6.60
2018-06-28T21:00:31.927Z,6.00
2018-06-28T21:03:01.183Z,6.20
2018-06-28T21:05:30.520Z,9.37
2018-06-28T21:07:59.989Z,6.63
2018-06-28T21:10:29.241Z,5.77
2018-06-28T21:12:58.770Z,5.53
2018-06-28T21:15:27.937Z,8.97
2018-06-28T21:17:57.104Z,6.50
2018-06-28T21:20:26.325Z,6.50
2018-06-28T21:22:55.542Z,6.80
2018-06-28T21:25:24.770Z,6.43
2018-06-28T21:27:54.430Z,7.00
2018-06-28T21:30:23.543Z,6.63
2018-06-28T21:32:52.684Z,7.60
2018-06-28T21:35:21.897Z,7.20
2018-06-28T21:37:51.035Z,6.97
2018-06-28T21:40:20.849Z,7.53
2018-06-28T21:42:49.970Z,6.63
2018-06-28T21:45:19.141Z,6.97
2018-06-28T21:47:48.368Z,6.80
2018-06-28T21:50:17.559Z,7.13
2018-06-28T21:52:46.851Z,7.40
2018-06-28T21:55:16.299Z,7.20
2018-06-28T21:57:45.485Z,7.40
2018-06-28T22:00:25.859Z,7.23
2018-06-28T22:02:55.011Z,7.13
2018-06-28T22:05:24.204Z,6.60
2018-06-28T22:07:53.433Z,6.53
2018-06-28T22:10:22.790Z,6.20
2018-06-28T22:12:52.582Z,6.57
2018-06-28T22:15:26.945Z,6.00
2018-06-28T22:17:58.906Z,5.83
2018-06-28T22:20:28.990Z,5.37
2018-06-28T22:22:59.083Z,6.23
2018-06-28T22:25:29.297Z,9.00
2018-06-28T22:27:58.477Z,6.83
2018-06-28T22:30:27.660Z,7.73
2018-06-28T22:32:56.808Z,6.70
2018-06-28T22:35:25.977Z,7.00
2018-06-28T22:37:55.094Z,7.27
2018-06-28T22:40:25.001Z,7.47
2018-06-28T22:42:54.781Z,6.43
2018-06-28T22:45:24.662Z,7.07
2018-06-28T22:47:53.873Z,9.67
2018-06-28T22:50:23.032Z,7.67
2018-06-28T22:52:52.154Z,7.57
2018-06-28T22:55:21.315Z,7.23
2018-06-28T22:57:50.469Z,6.77
2018-06-28T23:00:27.455Z,6.80
2018-06-28T23:02:56.599Z,7.13
2018-06-28T23:05:25.746Z,6.50
2018-06-28T23:07:54.904Z,6.23
2018-06-28T23:10:24.049Z,6.87
2018-06-28T23:12:53.189Z,6.73
2018-06-28T23:15:22.371Z,6.53
2018-06-28T23:17:51.562Z,6.50
2018-06-28T23:20:20.682Z,7.37
2018-06-28T23:22:50.937Z,7.70
2018-06-28T23:25:20.486Z,6.70
2018-06-28T23:27:50.338Z,6.60
2018-06-28T23:30:19.585Z,6.60
2018-06-28T23:32:48.822Z,6.80
2018-06-28T23:35:18.241Z,6.73
2018-06-28T23:37:47.478Z,6.30
2018-06-28T23:40:16.669Z,6.40
2018-06-28T23:42:45.837Z,7.07
2018-06-28T23:45:14.966Z,6.63
2018-06-28T23:47:44.388Z,6.37
2018-06-28T23:50:13.616Z,6.50
2018-06-28T23:52:42.741Z,5.40
2018-06-28T23:55:11.877Z,5.80
2018-06-28T23:57:41.040Z,6.23
